createdAt,value
2023-02-07T00:01:38.194Z,36.13
2023-02-07T00:05:39.443Z,32.20
2023-02-07T00:09:42.330Z,32.53
2023-02-07T00:13:42.493Z,33.20
2023-02-07T00:17:42.902Z,34.23
2023-02-07T00:21:43.260Z,35.93
2023-02-07T00:25:49.039Z,33.70
2023-02-07T00:29:49.225Z,36.23
2023-02-07T00:33:52.181Z,35.50
2023-02-07T00:37:52.327Z,33.80
2023-02-07T00:41:55.069Z,33.87
2023-02-07T00:45:55.145Z,38.47
2023-02-07T00:49:55.265Z,37.47
2023-02-07T00:53:56.639Z,39.90
2023-02-07T00:58:00.172Z,37.23
2023-02-07T01:02:00.290Z,36.30
2023-02-07T01:06:00.918Z,37.90
2023-02-07T01:10:01.048Z,38.63
2023-02-07T01:14:05.367Z,39.80
2023-02-07T01:18:05.476Z,37.00
2023-02-07T01:22:06.688Z,41.53
2023-02-07T01:26:08.883Z,39.30
2023-02-07T01:30:14.003Z,37.40
2023-02-07T01:34:16.154Z,42.97
2023-02-07T01:38:16.277Z,45.33
2023-02-07T01:42:18.636Z,37.37
2023-02-07T01:46:21.308Z,42.60
2023-02-07T01:50:21.855Z,42.23
2023-02-07T01:54:24.702Z,38.47
2023-02-07T01:58:26.841Z,38.70
2023-02-07T02:02:34.768Z,42.40
2023-02-07T02:06:37.795Z,40.00
2023-02-07T02:11:05.364Z,40.10
2023-02-07T02:15:23.423Z,40.17
2023-02-07T02:20:28.137Z,36.60
2023-02-07T02:25:15.512Z,40.70
2023-02-07T02:30:02.301Z,40.07
2023-02-07T02:34:15.196Z,42.10
2023-02-07T02:38:25.856Z,40.07
2023-02-07T02:42:35.195Z,41.37
2023-02-07T02:46:41.575Z,45.43
2023-02-07T02:50:49.777Z,43.47
2023-02-07T02:54:49.990Z,44.47
2023-02-07T02:59:32.473Z,44.93
2023-02-07T03:04:03.499Z,42.27
2023-02-07T03:08:20.105Z,39.30
2023-02-07T03:12:27.206Z,36.77
2023-02-07T03:16:34.079Z,39.47
2023-02-07T03:20:42.094Z,44.27
2023-02-07T03:24:49.427Z,40.77
2023-02-07T03:28:51.617Z,50.10
2023-02-07T03:32:57.083Z,51.67
2023-02-07T03:37:05.819Z,42.30
2023-02-07T03:41:18.151Z,48.20
2023-02-07T03:45:23.672Z,52.43
2023-02-07T03:49:24.798Z,50.80
2023-02-07T03:53:25.103Z,48.20
2023-02-07T03:57:27.729Z,46.70
2023-02-07T04:01:28.053Z,49.97
2023-02-07T04:05:28.242Z,44.87
2023-02-07T04:09:28.499Z,45.77
2023-02-07T04:13:32.561Z,41.67
2023-02-07T04:17:32.756Z,42.40
2023-02-07T04:21:32.860Z,43.13
2023-02-07T04:25:32.846Z,39.73
2023-02-07T04:29:35.773Z,39.90
2023-02-07T04:33:36.089Z,36.17
2023-02-07T04:37:36.226Z,39.37
2023-02-07T04:41:36.319Z,42.17
2023-02-07T04:45:39.485Z,42.90
2023-02-07T04:49:39.835Z,37.67
2023-02-07T04:53:39.931Z,48.50
2023-02-07T04:57:40.034Z,45.30
2023-02-07T05:01:42.910Z,46.87
2023-02-07T05:05:43.604Z,40.23
2023-02-07T05:09:43.710Z,38.67
2023-02-07T05:13:44.010Z,44.93
2023-02-07T05:17:46.787Z,40.73
2023-02-07T05:21:46.937Z,44.57
2023-02-07T05:25:47.535Z,43.63
2023-02-07T05:29:47.648Z,43.33
2023-02-07T05:33:52.254Z,43.83
2023-02-07T05:37:52.416Z,42.47
2023-02-07T05:41:52.590Z,44.33
2023-02-07T05:45:53.101Z,39.97
2023-02-07T05:49:55.920Z,45.50
2023-02-07T05:53:55.984Z,44.67
2023-02-07T05:57:56.100Z,46.63
2023-02-07T06:01:56.205Z,49.20
2023-02-07T06:05:59.087Z,63.87
2023-02-07T06:09:59.247Z,56.23
2023-02-07T06:13:59.436Z,56.10
2023-02-07T06:17:59.518Z,55.43
2023-02-07T06:22:02.246Z,54.23
2023-02-07T06:26:02.365Z,58.87
2023-02-07T06:30:02.458Z,53.00
2023-02-07T06:34:02.574Z,54.17
2023-02-07T06:38:05.733Z,56.80
2023-02-07T06:42:06.243Z,55.17
2023-02-07T06:46:06.488Z,60.00
2023-02-07T06:50:09.166Z,66.83
2023-02-07T06:54:12.017Z,61.70
2023-02-07T06:58:12.375Z,64.67
2023-02-07T07:02:14.919Z,69.33
2023-02-07T07:06:15.017Z,62.87
2023-02-07T07:10:18.122Z,62.13
2023-02-07T07:14:18.238Z,63.50
2023-02-07T07:18:18.554Z,57.80
2023-02-07T07:22:21.206Z,59.70
2023-02-07T07:26:24.837Z,61.47
2023-02-07T07:30:24.988Z,53.97
2023-02-07T07:34:24.999Z,65.07
2023-02-07T07:38:25.795Z,80.80
2023-02-07T07:42:28.870Z,100.40
2023-02-07T07:46:43.132Z,75.77
2023-02-07T07:50:43.700Z,60.93
2023-02-07T07:54:43.844Z,56.50
2023-02-07T07:58:48.546Z,53.87
2023-02-07T08:02:48.607Z,46.90
2023-02-07T08:06:48.863Z,50.53
2023-02-07T08:10:49.963Z,53.57
2023-02-07T08:14:52.845Z,47.83
2023-02-07T08:18:53.080Z,47.00
2023-02-07T08:22:53.295Z,44.07
2023-02-07T08:26:53.336Z,46.17
2023-02-07T08:30:56.426Z,44.30
2023-02-07T08:34:56.620Z,39.70
2023-02-07T08:38:56.739Z,39.27
2023-02-07T08:42:56.844Z,36.50
2023-02-07T08:46:59.685Z,36.70
2023-02-07T08:50:59.851Z,32.57
2023-02-07T08:54:59.905Z,30.53
2023-02-07T08:58:59.985Z,36.33
2023-02-07T09:03:03.740Z,31.20
2023-02-07T09:07:03.894Z,34.47
2023-02-07T09:11:09.192Z,30.83
2023-02-07T09:15:10.794Z,34.23
2023-02-07T09:19:13.459Z,33.97
2023-02-07T09:23:22.461Z,33.00
2023-02-07T09:27:22.559Z,29.70
2023-02-07T09:31:26.015Z,29.07
2023-02-07T09:35:29.229Z,29.20
2023-02-07T09:39:29.776Z,27.60
2023-02-07T09:43:50.850Z,26.47
2023-02-07T09:48:01.150Z,27.63
2023-02-07T09:52:07.900Z,26.90
2023-02-07T09:56:09.668Z,28.37
2023-02-07T10:00:25.517Z,27.20
2023-02-07T10:04:38.004Z,29.37
2023-02-07T10:08:41.453Z,25.40
2023-02-07T10:13:13.247Z,24.90
2023-02-07T10:17:33.010Z,25.20
2023-02-07T10:21:46.927Z,20.87
2023-02-07T10:26:06.821Z,24.17
2023-02-07T10:30:18.966Z,27.30
2023-02-07T10:34:24.975Z,22.23
2023-02-07T10:38:33.654Z,21.90
2023-02-07T10:42:40.558Z,23.53
2023-02-07T10:46:43.493Z,26.37
2023-02-07T10:50:45.701Z,21.17
2023-02-07T10:54:56.571Z,21.33
2023-02-07T10:59:00.894Z,21.47
2023-02-07T11:03:06.986Z,22.13
2023-02-07T11:07:10.400Z,20.00
2023-02-07T11:11:32.503Z,21.40
2023-02-07T11:15:49.499Z,21.07
2023-02-07T11:19:49.757Z,18.60
2023-02-07T11:23:52.620Z,19.30
2023-02-07T11:27:52.833Z,18.27
2023-02-07T11:31:59.874Z,19.00
2023-02-07T11:36:13.672Z,17.50
2023-02-07T11:40:32.130Z,19.77
2023-02-07T11:44:35.091Z,18.43
2023-02-07T11:48:42.391Z,16.97
2023-02-07T11:52:42.661Z,16.80
2023-02-07T11:56:46.253Z,17.23
2023-02-07T12:00:46.991Z,16.27
2023-02-07T12:04:50.145Z,16.87
2023-02-07T12:08:50.573Z,16.47
2023-02-07T12:12:56.837Z,17.53
2023-02-07T12:17:02.856Z,17.30
2023-02-07T12:21:15.896Z,15.63
2023-02-07T12:25:24.255Z,18.73
2023-02-07T12:29:37.450Z,20.63
2023-02-07T12:33:48.833Z,15.10
2023-02-07T12:38:02.585Z,16.20
2023-02-07T12:42:26.228Z,14.82
2023-02-07T12:46:37.297Z,16.45
2023-02-07T12:51:07.002Z,13.77
2023-02-07T12:55:26.219Z,15.40
2023-02-07T12:59:43.041Z,16.17
2023-02-07T13:04:07.284Z,14.30
2023-02-07T13:08:25.988Z,12.93
2023-02-07T13:12:38.086Z,13.93
2023-02-07T13:16:48.786Z,14.18
2023-02-07T13:21:11.509Z,14.32
2023-02-07T13:25:24.966Z,14.30
2023-02-07T13:29:32.082Z,14.98
2023-02-07T13:33:37.393Z,16.70
2023-02-07T13:37:51.597Z,12.20
2023-02-07T13:42:07.643Z,15.82
2023-02-07T13:46:29.504Z,11.63
2023-02-07T13:50:48.714Z,13.45
2023-02-07T13:55:05.526Z,14.63
2023-02-07T13:59:18.371Z,14.13
2023-02-07T14:03:30.727Z,13.68
2023-02-07T14:07:35.976Z,14.48
2023-02-07T14:11:44.266Z,13.25
2023-02-07T14:16:06.042Z,14.60
2023-02-07T14:20:44.482Z,14.33
2023-02-07T14:24:53.874Z,13.13
2023-02-07T14:28:53.928Z,13.67
2023-02-07T14:33:16.006Z,13.97
2023-02-07T14:37:43.593Z,16.93
2023-02-07T14:41:46.883Z,14.03
2023-02-07T14:46:07.660Z,13.63
2023-02-07T14:50:10.366Z,15.43
2023-02-07T14:54:24.184Z,14.97
2023-02-07T14:58:36.935Z,14.67
2023-02-07T15:02:40.143Z,14.87
2023-02-07T15:06:44.336Z,15.40
2023-02-07T15:10:55.374Z,14.13
2023-02-07T15:14:58.565Z,18.93
2023-02-07T15:19:02.793Z,15.20
2023-02-07T15:23:07.372Z,21.30
2023-02-07T15:27:23.422Z,16.30
2023-02-07T15:31:23.923Z,16.13
2023-02-07T15:35:27.095Z,15.37
2023-02-07T15:39:31.728Z,14.90
2023-02-07T15:43:37.586Z,15.23
2023-02-07T15:47:39.363Z,13.80
2023-02-07T15:51:44.440Z,15.90
2023-02-07T15:55:48.595Z,12.73
2023-02-07T15:59:53.396Z,14.20
2023-02-07T16:03:54.630Z,13.07
2023-02-07T16:07:55.912Z,12.23
2023-02-07T16:11:56.061Z,13.43
2023-02-07T16:16:01.483Z,13.03
2023-02-07T16:20:02.015Z,16.53
2023-02-07T16:24:09.572Z,14.60
2023-02-07T16:28:18.371Z,14.10
2023-02-07T16:32:21.309Z,16.67
2023-02-07T16:36:21.949Z,15.43
2023-02-07T16:40:24.143Z,19.90
2023-02-07T16:44:28.279Z,17.37
2023-02-07T16:48:31.006Z,18.33
2023-02-07T16:52:32.324Z,17.10
2023-02-07T16:56:32.406Z,21.13
2023-02-07T17:00:32.676Z,25.50
2023-02-07T17:04:35.914Z,25.03
2023-02-07T17:08:37.791Z,23.47
2023-02-07T17:12:38.884Z,40.83
2023-02-07T17:16:39.960Z,34.43
2023-02-07T17:20:43.918Z,30.47
2023-02-07T17:24:44.137Z,32.80
2023-02-07T17:28:44.241Z,31.27
2023-02-07T17:32:45.369Z,32.47
2023-02-07T17:36:51.020Z,35.30
2023-02-07T17:40:51.585Z,38.80
2023-02-07T17:44:52.592Z,42.90
2023-02-07T17:48:55.018Z,46.53
2023-02-07T17:52:57.877Z,40.60
2023-02-07T17:56:57.994Z,43.40
2023-02-07T18:00:58.305Z,49.10
2023-02-07T18:04:59.771Z,44.33
2023-02-07T18:09:02.474Z,39.37
2023-02-07T18:13:03.882Z,28.50
2023-02-07T18:17:04.248Z,40.23
2023-02-07T18:21:07.027Z,56.73
2023-02-07T18:25:10.277Z,60.20
2023-02-07T18:29:10.793Z,55.90
2023-02-07T18:33:13.486Z,56.37
2023-02-07T18:37:14.446Z,54.63
2023-02-07T18:41:23.568Z,61.40
2023-02-07T18:45:24.996Z,72.57
2023-02-07T18:49:27.943Z,83.97
2023-02-07T18:53:28.996Z,97.80
2023-02-07T18:57:31.796Z,55.23
2023-02-07T19:01:35.236Z,44.37
2023-02-07T19:05:35.875Z,50.57
2023-02-07T19:09:36.727Z,50.20
2023-02-07T19:13:40.244Z,57.87
2023-02-07T19:17:40.788Z,58.17
2023-02-07T19:21:41.694Z,44.03
2023-02-07T19:25:54.086Z,49.17
2023-02-07T19:29:57.148Z,58.93
2023-02-07T19:38:05.588Z,51.30
2023-02-07T19:42:05.704Z,54.17
2023-02-07T19:46:06.432Z,50.63
2023-02-07T19:50:07.642Z,51.07
2023-02-07T19:54:10.956Z,50.85
2023-02-07T19:58:11.746Z,42.80
2023-02-07T20:02:15.958Z,48.90
2023-02-07T20:06:25.360Z,47.00
2023-02-07T20:10:28.088Z,47.00
2023-02-07T20:14:28.288Z,56.50
2023-02-07T20:18:29.189Z,53.83
2023-02-07T20:22:30.134Z,50.47
2023-02-07T20:26:36.861Z,55.50
2023-02-07T20:30:40.741Z,42.83
2023-02-07T20:34:41.281Z,56.13
2023-02-07T20:38:41.480Z,45.90
2023-02-07T20:42:44.452Z,42.17
2023-02-07T20:46:46.708Z,43.93
2023-02-07T20:50:46.881Z,49.47
2023-02-07T20:54:47.865Z,45.77
2023-02-07T20:58:50.668Z,44.57
2023-02-07T21:02:50.941Z,49.60
2023-02-07T21:06:51.044Z,44.33
2023-02-07T21:10:52.553Z,44.43
2023-02-07T21:14:57.322Z,37.10
2023-02-07T21:18:57.336Z,44.23
2023-02-07T21:22:57.878Z,43.67
2023-02-07T21:26:59.338Z,45.13
2023-02-07T21:31:06.441Z,45.20
2023-02-07T21:35:06.864Z,44.53
2023-02-07T21:39:10.540Z,43.07
2023-02-07T21:43:11.154Z,41.23
2023-02-07T21:47:14.001Z,44.13
2023-02-07T21:51:18.534Z,43.53
2023-02-07T21:55:19.546Z,41.83
2023-02-07T21:59:24.693Z,38.27
2023-02-07T22:03:27.498Z,42.53
2023-02-07T22:07:27.628Z,49.90
2023-02-07T22:11:32.628Z,50.43
2023-02-07T22:15:34.222Z,69.07
2023-02-07T22:19:37.345Z,53.93
2023-02-07T22:23:38.862Z,54.10
2023-02-07T22:27:38.928Z,52.30
2023-02-07T22:31:42.812Z,51.67
2023-02-07T22:35:47.609Z,50.93
2023-02-07T22:39:52.539Z,54.57
2023-02-07T22:43:53.253Z,59.90
2023-02-07T22:47:55.319Z,44.87
2023-02-07T22:51:59.104Z,48.27
2023-02-07T22:56:03.857Z,36.70
2023-02-07T23:00:04.210Z,47.40
2023-02-07T23:04:06.433Z,49.53
2023-02-07T23:08:09.787Z,45.93
2023-02-07T23:12:10.329Z,58.47
2023-02-07T23:16:14.822Z,50.43
2023-02-07T23:20:14.937Z,45.83
2023-02-07T23:24:17.744Z,52.13
2023-02-07T23:28:18.375Z,55.50
2023-02-07T23:32:19.700Z,54.30
2023-02-07T23:36:20.590Z,57.43
2023-02-07T23:40:23.434Z,48.87
2023-02-07T23:44:24.041Z,37.97
2023-02-07T23:48:24.495Z,41.50
2023-02-07T23:52:24.681Z,51.00
2023-02-07T23:56:28.096Z,34.37
